Time;durP1;ratioP1;P1;durP2;ratioP2;P2;SDS_P1;SDS_P2;PMS_P1;PMS_P2;Temp;Humidity;BMP_temperature;BMP_pressure;BME280_temperature;BME280_humidity;BME280_pressure;Samples;Min_cycle;Max_cycle;Signal;HPM_P1;HPM_P2
2022/05/26 00:00:00;;;;;;;5.47;1.00;;;;;;;12.60;99.27;96617.28;5040336;28;20761;-77
2022/05/26 00:02:27;;;;;;;3.00;1.20;;;;;;;12.57;100.00;96627.31;5026011;28;20033;-77
2022/05/26 00:04:52;;;;;;;5.80;1.10;;;;;;;12.52;100.00;96634.91;5038257;28;20025;-77
2022/05/26 00:07:18;;;;;;;2.13;1.20;;;;;;;12.40;100.00;96622.00;5044036;28;20861;-77
2022/05/26 00:09:44;;;;;;;4.77;1.33;;;;;;;12.39;100.00;96624.81;5021268;28;20120;-76
2022/05/26 00:12:12;;;;;;;2.77;1.03;;;;;;;12.34;100.00;96624.47;5037569;28;20095;-77
2022/05/26 00:14:39;;;;;;;3.33;1.20;;;;;;;12.35;100.00;96624.31;5030250;28;20750;-76
2022/05/26 00:17:07;;;;;;;5.90;1.30;;;;;;;12.35;100.00;96629.59;5029465;28;20455;-77
2022/05/26 00:19:33;;;;;;;5.37;2.17;;;;;;;12.30;100.00;96629.22;5035922;28;20142;-76
2022/05/26 00:21:59;;;;;;;3.67;2.00;;;;;;;12.30;100.00;96631.88;5038208;28;20028;-77
2022/05/26 00:24:25;;;;;;;2.37;1.23;;;;;;;12.26;100.00;96633.19;5036358;28;20052;-77
2022/05/26 00:26:51;;;;;;;7.40;1.30;;;;;;;12.16;100.00;96635.13;5030725;28;20652;-77
2022/05/26 00:29:17;;;;;;;3.77;1.50;;;;;;;12.17;100.00;96628.84;5038180;28;20025;-77
2022/05/26 00:31:43;;;;;;;3.93;1.23;;;;;;;12.27;100.00;96634.81;5027976;28;20061;-76
2022/05/26 00:34:09;;;;;;;5.83;1.40;;;;;;;12.27;100.00;96637.47;5032731;28;20025;-77
2022/05/26 00:36:44;;;;;;;4.87;1.10;;;;;;;12.35;100.00;96636.69;5030892;28;20038;-77
2022/05/26 00:39:19;;;;;;;3.37;1.20;;;;;;;12.34;100.00;96637.66;5028073;28;20083;-76
2022/05/26 00:42:01;;;;;;;3.70;1.23;;;;;;;12.27;100.00;96642.75;5036143;28;20033;-76
2022/05/26 00:44:28;;;;;;;3.53;1.77;;;;;;;12.24;100.00;96643.09;5041456;28;20033;-77
2022/05/26 00:47:02;;;;;;;4.03;1.30;;;;;;;12.16;100.00;96645.69;5021655;28;20672;-77
2022/05/26 00:49:39;;;;;;;3.30;1.27;;;;;;;12.07;100.00;96642.16;5026834;28;20038;-77
2022/05/26 00:52:09;;;;;;;6.13;1.23;;;;;;;12.21;100.00;96632.84;5026917;28;20045;-76
2022/05/26 00:54:34;;;;;;;3.77;1.53;;;;;;;12.10;100.00;96643.66;5023242;28;20025;-75
2022/05/26 00:57:06;;;;;;;4.67;1.50;;;;;;;12.13;100.00;96644.16;5017978;28;20725;-75
2022/05/26 00:59:34;;;;;;;4.20;1.30;;;;;;;12.00;100.00;96635.88;5027080;28;20434;-75
2022/05/26 01:02:00;;;;;;;3.10;1.40;;;;;;;11.96;100.00;96632.72;5021320;28;20457;-76
2022/05/26 01:04:34;;;;;;;3.87;1.30;;;;;;;11.98;100.00;96636.06;5029389;28;20041;-75
2022/05/26 01:07:24;;;;;;;3.10;1.30;;;;;;;11.94;100.00;96634.72;5040469;28;20035;-75
2022/05/26 01:09:50;;;;;;;3.20;1.30;;;;;;;11.95;100.00;96641.63;5040098;28;20044;-75
2022/05/26 01:12:16;;;;;;;3.30;1.40;;;;;;;11.97;100.00;96642.31;5029081;28;20029;-76
2022/05/26 01:15:02;;;;;;;7.40;1.60;;;;;;;11.98;100.00;96637.88;5033251;28;20041;-75
2022/05/26 01:17:49;;;;;;;4.40;1.90;;;;;;;11.92;100.00;96641.13;5032239;28;20036;-75
2022/05/26 01:20:52;;;;;;;4.37;1.60;;;;;;;11.91;100.00;96635.03;5030485;28;20038;-76
2022/05/26 01:23:57;;;;;;;3.03;1.25;;;;;;;11.78;100.00;96632.78;5031920;28;20026;-75
2022/05/26 01:26:37;;;;;;;2.53;1.23;;;;;;;11.79;100.00;96633.63;5023744;28;20060;-75
2022/05/26 01:29:28;;;;;;;3.70;1.40;;;;;;;11.65;100.00;96632.38;5036311;28;20032;-76
2022/05/26 01:32:30;;;;;;;2.73;1.30;;;;;;;11.62;100.00;96631.88;5041581;28;20092;-75
2022/05/26 01:35:07;;;;;;;3.27;1.40;;;;;;;11.50;100.00;96640.06;5035390;28;20038;-75
2022/05/26 01:37:42;;;;;;;3.80;1.40;;;;;;;11.51;100.00;96633.78;5013788;28;20495;-75
2022/05/26 01:40:40;;;;;;;3.90;1.50;;;;;;;11.65;100.00;96631.56;5031581;28;20040;-75
2022/05/26 01:43:18;;;;;;;4.87;1.40;;;;;;;11.53;100.00;96631.81;5043044;28;20527;-75
2022/05/26 01:46:01;;;;;;;7.43;1.70;;;;;;;11.49;100.00;96638.38;5018039;28;20029;-75
2022/05/26 01:48:33;;;;;;;4.70;1.55;;;;;;;11.57;100.00;96638.44;5027476;28;20059;-75
2022/05/26 01:51:26;;;;;;;2.93;1.33;;;;;;;11.55;100.00;96640.41;5028062;28;20056;-75
2022/05/26 01:54:10;;;;;;;2.88;1.30;;;;;;;11.52;100.00;96638.06;5032249;28;20376;-75
2022/05/26 01:56:53;;;;;;;2.05;1.20;;;;;;;11.49;100.00;96646.28;5030124;28;20042;-76
2022/05/26 01:59:19;;;;;;;4.43;1.40;;;;;;;11.52;100.00;96640.69;5003622;28;20033;-75
2022/05/26 02:01:55;;;;;;;5.13;1.40;;;;;;;11.59;100.00;96637.44;5030369;28;20060;-75
2022/05/26 02:04:33;;;;;;;3.50;1.43;;;;;;;11.62;100.00;96645.88;5018847;28;20025;-75
2022/05/26 02:07:10;;;;;;;2.87;1.10;;;;;;;11.66;100.00;96638.47;5042022;28;20033;-75
2022/05/26 02:09:41;;;;;;;4.17;1.23;;;;;;;11.68;100.00;96641.78;5045555;28;20171;-75
2022/05/26 02:12:35;;;;;;;4.10;1.90;;;;;;;11.74;100.00;96644.63;5032301;28;20025;-75
2022/05/26 02:15:18;;;;;;;6.57;1.60;;;;;;;11.67;100.00;96648.03;5042465;28;20025;-75
2022/05/26 02:17:51;;;;;;;3.03;1.30;;;;;;;11.59;100.00;96642.72;5031284;28;20037;-75
2022/05/26 02:20:26;;;;;;;3.42;1.42;;;;;;;11.57;100.00;96641.06;5031675;28;20052;-75
2022/05/26 02:23:13;;;;;;;3.07;1.20;;;;;;;11.64;100.00;96645.72;5039167;28;20034;-75
2022/05/26 02:25:39;;;;;;;4.17;1.80;;;;;;;11.61;100.00;96640.78;5038470;28;20311;-75
2022/05/26 02:28:05;;;;;;;2.77;1.33;;;;;;;11.59;100.00;96648.00;5049955;28;20044;-75
2022/05/26 02:30:37;;;;;;;4.10;1.60;;;;;;;11.69;100.00;96646.91;5045821;28;20095;-75
2022/05/26 02:33:06;;;;;;;3.77;1.40;;;;;;;11.66;100.00;96641.13;5021614;28;20028;-75
2022/05/26 02:35:36;;;;;;;6.03;1.63;;;;;;;11.61;100.00;96641.59;5036726;28;20033;-75
2022/05/26 02:38:15;;;;;;;4.53;1.57;;;;;;;11.56;100.00;96644.66;5037838;28;20037;-75
2022/05/26 02:40:42;;;;;;;4.00;1.43;;;;;;;11.51;100.00;96641.69;5014615;28;20731;-75
2022/05/26 02:43:13;;;;;;;4.87;1.27;;;;;;;11.56;100.00;96642.03;5024406;28;20036;-75
2022/05/26 02:46:01;;;;;;;3.30;1.27;;;;;;;11.61;100.00;96638.97;5042436;28;20033;-75
2022/05/26 02:48:36;;;;;;;5.47;1.30;;;;;;;11.54;100.00;96637.94;5044135;28;20025;-75
2022/05/26 02:51:07;;;;;;;5.57;1.20;;;;;;;11.57;100.00;96637.63;5040902;28;20028;-76
2022/05/26 02:53:51;;;;;;;3.13;1.33;;;;;;;11.56;100.00;96639.41;5033702;28;20025;-75
2022/05/26 02:56:31;;;;;;;2.63;1.20;;;;;;;11.56;100.00;96639.41;5029770;28;20045;-75
2022/05/26 02:59:17;;;;;;;3.60;1.40;;;;;;;11.52;100.00;96642.50;5036841;28;20482;-75
2022/05/26 03:01:57;;;;;;;3.30;1.13;;;;;;;11.42;100.00;96642.63;5027434;28;20132;-75
2022/05/26 03:04:31;;;;;;;4.77;1.77;;;;;;;11.44;100.00;96635.41;5040027;28;20120;-75
2022/05/26 03:07:00;;;;;;;9.57;1.53;;;;;;;11.48;100.00;96633.28;5045612;28;20026;-75
2022/05/26 03:09:27;;;;;;;2.73;1.33;;;;;;;11.61;100.00;96646.03;5044037;28;20086;-75
2022/05/26 03:11:56;;;;;;;3.20;1.20;;;;;;;11.66;100.00;96636.66;5037366;28;20044;-75
2022/05/26 03:14:24;;;;;;;3.33;0.80;;;;;;;11.65;100.00;96642.94;5040605;28;20103;-75
2022/05/26 03:16:50;;;;;;;3.90;0.90;;;;;;;11.68;100.00;96642.63;5036757;28;20095;-75
2022/05/26 03:19:17;;;;;;;3.20;1.00;;;;;;;11.65;100.00;96647.38;5034605;28;20025;-75
2022/05/26 03:21:43;;;;;;;1.90;0.83;;;;;;;11.68;100.00;96639.16;5034748;28;20048;-75
2022/05/26 03:24:09;;;;;;;2.20;1.20;;;;;;;11.71;100.00;96652.03;5027879;28;20029;-75
2022/05/26 03:26:35;;;;;;;2.07;0.90;;;;;;;11.66;100.00;96641.94;5032961;28;20033;-75
2022/05/26 03:29:02;;;;;;;2.70;1.00;;;;;;;11.67;100.00;96643.59;5014827;28;20043;-75
2022/05/26 03:31:27;;;;;;;7.80;1.00;;;;;;;11.54;100.00;96653.72;5022316;28;20585;-75
2022/05/26 03:42:10;;;;;;;2.13;1.10;;;;;;;11.26;100.00;96653.03;5028250;28;20087;-75
2022/05/26 03:44:35;;;;;;;3.27;1.27;;;;;;;11.23;100.00;96662.06;5034480;28;20052;-75
2022/05/26 03:47:02;;;;;;;2.23;1.13;;;;;;;11.21;100.00;96664.03;5033363;28;20481;-75
2022/05/26 03:49:27;;;;;;;3.50;1.40;;;;;;;11.23;100.00;96666.50;5029384;28;20034;-75
2022/05/26 03:51:53;;;;;;;3.70;1.43;;;;;;;11.15;100.00;96666.44;5021093;28;20041;-75
2022/05/26 03:54:19;;;;;;;3.63;1.30;;;;;;;11.15;100.00;96661.16;5017774;28;20075;-75
2022/05/26 03:56:45;;;;;;;6.73;1.60;;;;;;;11.16;100.00;96658.38;5017836;28;20325;-75
2022/05/26 03:59:11;;;;;;;4.70;1.40;;;;;;;11.21;100.00;96658.75;5025892;28;20025;-75
2022/05/26 04:01:37;;;;;;;5.23;1.30;;;;;;;11.20;100.00;96672.06;5036064;28;20071;-76
2022/05/26 04:04:03;;;;;;;4.13;1.37;;;;;;;11.18;100.00;96672.22;5024761;28;20033;-75
2022/05/26 04:06:28;;;;;;;3.23;1.30;;;;;;;11.25;100.00;96675.06;5030274;28;20029;-75
2022/05/26 04:08:55;;;;;;;3.33;1.00;;;;;;;11.23;100.00;96674.38;5027548;28;20045;-75
2022/05/26 04:11:24;;;;;;;3.80;1.30;;;;;;;11.19;100.00;96679.13;5030543;28;20028;-75
2022/05/26 04:13:51;;;;;;;1.90;0.90;;;;;;;11.28;100.00;96685.31;5034524;28;20160;-75
2022/05/26 04:16:17;;;;;;;4.67;1.50;;;;;;;11.28;100.00;96682.66;5032662;28;20035;-75
2022/05/26 04:18:43;;;;;;;3.80;1.10;;;;;;;11.27;100.00;96679.22;5030834;28;20037;-75
2022/05/26 04:21:12;;;;;;;2.07;1.10;;;;;;;11.33;100.00;96683.88;5035230;28;20037;-74
2022/05/26 04:23:38;;;;;;;4.50;1.27;;;;;;;11.41;100.00;96688.38;5032287;28;20112;-75
2022/05/26 04:26:05;;;;;;;2.53;1.40;;;;;;;11.42;100.00;96692.66;5025631;28;20048;-75
2022/05/26 04:28:32;;;;;;;3.33;0.90;;;;;;;11.48;100.00;96694.69;5023550;28;20512;-75
2022/05/26 04:30:58;;;;;;;3.13;1.20;;;;;;;11.51;100.00;96701.44;5034349;28;20541;-75
2022/05/26 04:33:25;;;;;;;4.30;1.33;;;;;;;11.55;100.00;96697.53;5032600;28;20033;-76
2022/05/26 04:35:51;;;;;;;2.93;1.03;;;;;;;11.67;100.00;96698.09;5041310;28;20101;-75
2022/05/26 04:38:18;;;;;;;1.70;0.90;;;;;;;11.62;100.00;96705.63;5041780;28;20417;-75
2022/05/26 04:40:45;;;;;;;4.90;0.90;;;;;;;11.76;100.00;96702.44;5035340;28;20487;-75
2022/05/26 04:43:11;;;;;;;2.60;0.90;;;;;;;11.79;100.00;96708.22;5041812;28;20036;-75
2022/05/26 04:45:38;;;;;;;2.50;0.90;;;;;;;11.89;100.00;96710.78;5040150;28;20057;-75
2022/05/26 04:48:04;;;;;;;2.83;1.17;;;;;;;11.94;100.00;96710.34;5050126;28;20033;-75
2022/05/26 04:50:30;;;;;;;3.87;1.23;;;;;;;11.96;100.00;96709.16;5035969;28;20040;-75
2022/05/26 04:52:56;;;;;;;3.93;0.93;;;;;;;11.86;100.00;96713.72;5037024;28;20029;-75
2022/05/26 04:55:22;;;;;;;5.73;1.10;;;;;;;11.90;100.00;96714.25;5019818;28;20812;-75
2022/05/26 04:57:48;;;;;;;1.27;0.80;;;;;;;11.80;100.00;96714.31;5031522;28;20033;-75
2022/05/26 05:00:16;;;;;;;4.27;0.80;;;;;;;11.90;100.00;96715.06;5036148;28;20025;-76
2022/05/26 05:02:42;;;;;;;3.40;0.90;;;;;;;11.89;100.00;96729.22;5025861;28;20048;-75
2022/05/26 05:05:10;;;;;;;1.90;1.00;;;;;;;11.99;100.00;96723.84;5041194;28;20028;-75
2022/05/26 05:07:36;;;;;;;3.07;1.20;;;;;;;12.21;100.00;96722.50;5038482;28;20036;-75
2022/05/26 05:10:03;;;;;;;3.43;1.03;;;;;;;12.20;100.00;96723.47;5035454;28;20043;-75
2022/05/26 05:12:29;;;;;;;1.83;1.00;;;;;;;12.41;100.00;96726.56;5038826;28;20037;-76
2022/05/26 05:15:02;;;;;;;3.87;0.90;;;;;;;12.63;100.00;96732.22;5036019;28;20064;-76
2022/05/26 05:17:30;;;;;;;3.45;0.93;;;;;;;12.77;100.00;96731.59;5039631;28;20512;-76
2022/05/26 05:19:56;;;;;;;2.43;0.87;;;;;;;12.97;100.00;96734.78;5026883;28;20029;-76
2022/05/26 05:22:34;;;;;;;2.30;0.90;;;;;;;13.06;100.00;96740.94;5048634;28;20029;-77
2022/05/26 05:25:18;;;;;;;4.13;0.97;;;;;;;13.18;100.00;96737.00;5035529;28;20110;-77
2022/05/26 05:27:53;;;;;;;3.90;1.60;;;;;;;13.30;100.00;96738.34;5026795;28;20703;-77
2022/05/26 05:30:24;;;;;;;4.03;0.80;;;;;;;13.50;100.00;96748.59;5019194;28;20368;-77
2022/05/26 05:32:56;;;;;;;5.03;0.87;;;;;;;13.72;100.00;96747.13;5030689;28;20033;-77
2022/05/26 05:35:33;;;;;;;1.27;0.73;;;;;;;13.79;100.00;96748.94;5042432;28;20412;-77
2022/05/26 05:38:17;;;;;;;3.20;0.80;;;;;;;13.93;100.00;96751.88;5032056;28;20065;-76
2022/05/26 05:40:46;;;;;;;3.50;0.80;;;;;;;14.10;99.61;96753.50;5019691;28;20759;-77
2022/05/26 05:43:12;;;;;;;1.30;0.87;;;;;;;14.25;100.00;96745.69;5032139;28;20041;-77
2022/05/26 05:45:39;;;;;;;3.13;0.73;;;;;;;14.45;97.22;96746.13;5042507;28;20025;-76
2022/05/26 05:48:07;;;;;;;3.57;1.03;;;;;;;14.55;95.65;96750.28;5040254;28;20039;-77
2022/05/26 05:50:33;;;;;;;1.43;0.80;;;;;;;14.87;93.97;96750.28;5018130;28;20522;-77
2022/05/26 05:53:05;;;;;;;2.33;0.80;;;;;;;14.92;93.00;96747.94;5036432;28;20056;-75
2022/05/26 05:55:31;;;;;;;1.20;0.60;;;;;;;15.06;91.43;96749.88;5018824;28;20121;-77
2022/05/26 05:58:00;;;;;;;2.60;0.70;;;;;;;15.16;89.46;96755.75;5048664;28;20064;-76
2022/05/26 06:00:29;;;;;;;5.10;0.90;;;;;;;15.64;87.91;96760.91;5016095;28;20120;-77
2022/05/26 06:02:56;;;;;;;5.23;1.00;;;;;;;15.92;87.05;96758.53;5050136;28;20041;-77
2022/05/26 06:05:22;;;;;;;3.80;1.00;;;;;;;15.80;86.96;96771.41;5049918;28;20033;-77
2022/05/26 06:07:51;;;;;;;3.10;0.70;;;;;;;15.96;83.62;96757.16;5018978;28;20135;-77
2022/05/26 06:10:20;;;;;;;4.40;1.00;;;;;;;16.34;83.26;96760.59;5022481;28;20040;-77
2022/05/26 06:12:46;;;;;;;1.97;0.90;;;;;;;16.94;78.71;96758.75;5053364;28;20029;-76
2022/05/26 06:15:15;;;;;;;5.93;2.63;;;;;;;16.37;77.63;96754.13;5024228;28;20057;-76
2022/05/26 06:17:44;;;;;;;1.97;0.67;;;;;;;16.86;78.52;96758.84;5026307;28;20033;-76
2022/05/26 06:20:12;;;;;;;2.90;0.90;;;;;;;17.10;76.00;96765.66;5032593;28;20030;-77
2022/05/26 06:22:45;;;;;;;3.27;0.80;;;;;;;16.87;71.87;96766.66;5040489;28;20037;-78
2022/05/26 06:25:13;;;;;;;4.85;0.82;;;;;;;17.13;73.25;96771.44;5018847;28;20033;-76
2022/05/26 06:30:26;;;;;;;4.80;0.80;;;;;;;16.38;75.38;96769.03;5042485;28;20029;-76
2022/05/26 06:38:43;;;;;;;2.13;0.63;;;;;;;16.34;79.70;96783.66;5014631;28;20107;-76
2022/05/26 06:43:56;;;;;;;2.95;0.85;;;;;;;16.53;79.30;96788.41;5028500;28;20545;-76
2022/05/26 06:46:22;;;;;;;1.67;0.65;;;;;;;16.64;79.00;96785.31;5037603;28;20048;-76
2022/05/26 06:48:48;;;;;;;2.72;0.88;;;;;;;16.68;77.39;96788.44;5035530;28;20037;-76
2022/05/26 06:51:14;;;;;;;1.88;0.60;;;;;;;16.81;77.01;96798.44;5041258;28;20033;-75
2022/05/26 06:53:39;;;;;;;5.38;0.90;;;;;;;16.83;77.11;96797.22;5029204;28;20521;-76
2022/05/26 06:56:06;;;;;;;5.53;0.93;;;;;;;16.71;76.73;96799.50;5034476;28;20064;-77
2022/05/26 06:58:32;;;;;;;2.85;0.60;;;;;;;16.52;77.25;96796.56;5039690;28;20054;-75
2022/05/26 07:00:58;;;;;;;2.75;0.63;;;;;;;16.65;78.53;96794.94;5027647;28;20096;-75
2022/05/26 07:03:25;;;;;;;1.58;0.57;;;;;;;16.75;78.83;96800.00;5024814;28;20025;-76
2022/05/26 07:05:52;;;;;;;3.13;0.60;;;;;;;16.63;77.38;96802.28;5037066;28;20048;-78
2022/05/26 07:08:18;;;;;;;1.98;0.65;;;;;;;16.90;77.36;96794.66;5034138;28;20397;-76
2022/05/26 07:10:46;;;;;;;2.25;0.75;;;;;;;16.78;76.21;96809.44;5027152;28;20041;-76
2022/05/26 07:13:12;;;;;;;2.38;0.57;;;;;;;16.68;76.80;96807.84;5038247;28;20032;-76
2022/05/26 07:15:38;;;;;;;2.80;0.88;;;;;;;16.52;75.67;96810.69;5022950;28;20037;-76
2022/05/26 07:18:07;;;;;;;3.13;0.55;;;;;;;16.69;76.89;96806.81;5025134;28;20078;-77
2022/05/26 07:20:36;;;;;;;4.93;0.88;;;;;;;17.02;76.48;96814.44;5021687;28;20060;-76
2022/05/26 07:23:08;;;;;;;3.33;0.70;;;;;;;16.65;75.18;96816.16;5036253;28;20394;-75
2022/05/26 07:25:37;;;;;;;1.55;0.50;;;;;;;16.38;76.30;96830.06;5017697;28;20025;-76
2022/05/26 07:28:03;;;;;;;1.65;0.57;;;;;;;16.70;76.00;96821.78;5032900;28;20045;-76
2022/05/26 07:30:29;;;;;;;1.98;0.95;;;;;;;16.45;76.01;96825.69;5033670;28;20036;-76
2022/05/26 07:32:55;;;;;;;3.17;0.77;;;;;;;16.44;76.00;96822.22;5037935;28;20028;-79
2022/05/26 07:35:20;;;;;;;4.25;0.77;;;;;;;16.89;74.12;96824.91;5052769;28;20021;-77
2022/05/26 07:43:17;;;;;;;1.92;0.70;;;;;;;17.00;77.38;96824.44;5028164;28;20059;-77
2022/05/26 07:45:44;;;;;;;2.15;0.80;;;;;;;17.01;75.44;96831.41;5035300;28;20533;-77
2022/05/26 07:48:09;;;;;;;1.73;0.63;;;;;;;17.35;75.02;96829.97;5025717;28;20033;-77
2022/05/26 07:50:36;;;;;;;3.17;0.68;;;;;;;17.26;73.63;96829.25;5023905;28;20038;-77
2022/05/26 07:53:02;;;;;;;1.75;0.60;;;;;;;17.35;74.06;96828.13;5033593;28;20049;-76
2022/05/26 07:55:27;;;;;;;1.25;0.55;;;;;;;17.29;74.42;96838.69;5024090;28;20033;-76
2022/05/26 07:57:53;;;;;;;3.38;1.08;;;;;;;17.18;74.08;96842.66;5030487;28;20398;-76
2022/05/26 08:00:19;;;;;;;1.45;0.60;;;;;;;17.28;73.61;96837.88;5035579;28;20029;-76
2022/05/26 08:02:45;;;;;;;3.75;1.00;;;;;;;17.44;75.16;96839.50;5033948;28;20693;-76
2022/05/26 08:05:12;;;;;;;3.35;0.80;;;;;;;17.36;75.77;96839.59;5036542;28;20037;-77
2022/05/26 08:07:38;;;;;;;1.90;0.70;;;;;;;17.09;75.52;96849.91;5035431;28;20025;-76
2022/05/26 08:10:05;;;;;;;2.55;0.75;;;;;;;17.02;75.40;96859.63;5026272;28;20548;-76
2022/05/26 08:12:31;;;;;;;1.30;0.43;;;;;;;17.13;75.65;96856.47;5014547;28;20041;-77
2022/05/26 08:14:57;;;;;;;1.80;0.65;;;;;;;17.28;74.64;96853.00;5038105;28;20029;-76
2022/05/26 08:17:23;;;;;;;0.82;0.55;;;;;;;17.24;73.26;96854.38;5020464;28;20553;-76
2022/05/26 08:19:49;;;;;;;3.78;0.80;;;;;;;17.57;75.00;96844.97;5033618;28;20029;-76
2022/05/26 08:22:17;;;;;;;1.55;0.40;;;;;;;17.52;72.78;96850.00;5035006;28;20098;-75
2022/05/26 08:24:52;;;;;;;3.53;0.80;;;;;;;17.70;71.96;96857.56;5023083;28;20132;-76
2022/05/26 08:27:18;;;;;;;3.58;0.65;;;;;;;17.58;73.54;96843.13;5018585;28;20030;-76
2022/05/26 08:29:44;;;;;;;2.45;0.70;;;;;;;17.66;73.58;96857.09;5011349;28;20048;-76
2022/05/26 08:32:10;;;;;;;1.95;0.80;;;;;;;17.82;71.02;96856.06;5029237;28;20037;-77
2022/05/26 08:34:35;;;;;;;3.17;0.50;;;;;;;18.05;69.21;96861.22;5022475;28;20183;-76
2022/05/26 08:37:03;;;;;;;2.17;0.60;;;;;;;18.76;66.47;96857.69;5035226;28;20033;-75
2022/05/26 08:39:32;;;;;;;1.60;0.60;;;;;;;19.31;63.94;96855.91;5030586;28;20037;-76
2022/05/26 08:41:58;;;;;;;3.00;0.80;;;;;;;19.38;62.70;96848.75;5016531;28;20037;-77
2022/05/26 08:44:34;;;;;;;1.75;0.70;;;;;;;19.96;60.70;96859.84;5033986;28;20034;-75
2022/05/26 08:47:09;;;;;;;3.70;0.80;;;;;;;19.44;60.59;96845.31;5031770;28;20657;-78
2022/05/26 08:49:42;;;;;;;3.17;0.65;;;;;;;19.25;61.68;96852.22;5019631;28;20645;-76
2022/05/26 08:52:11;;;;;;;1.25;0.77;;;;;;;19.03;60.90;96854.16;5030746;28;20056;-75
2022/05/26 08:54:44;;;;;;;1.30;0.60;;;;;;;19.35;62.42;96857.19;5031244;28;20039;-76
2022/05/26 08:57:12;;;;;;;;;;;;;;;19.65;63.20;96859.56;5028267;28;20518;-76
2022/05/26 08:59:42;;;;;;;3.70;0.55;;;;;;;19.06;61.97;96864.44;5033433;28;19913;-76
2022/05/26 09:02:33;;;;;;;2.45;0.82;;;;;;;19.16;60.34;96857.91;5043269;28;20029;-76
2022/05/26 09:05:01;;;;;;;2.45;0.85;;;;;;;18.93;63.24;96863.53;5036336;28;20091;-76
2022/05/26 09:13:24;;;;;;;3.58;0.60;;;;;;;18.70;62.75;96874.44;5026533;28;20048;-77
2022/05/26 09:15:50;;;;;;;4.03;0.85;;;;;;;19.30;59.28;96872.94;5007717;28;20048;-75
2022/05/26 09:18:18;;;;;;;2.45;0.65;;;;;;;20.09;57.82;96863.56;5038901;28;20029;-76
2022/05/26 09:20:47;;;;;;;1.88;0.50;;;;;;;19.76;58.64;96869.66;5035108;28;20128;-76
2022/05/26 09:23:24;;;;;;;3.17;0.70;;;;;;;19.25;59.02;96873.56;5019433;28;20108;-76
2022/05/26 09:26:13;;;;;;;1.23;0.60;;;;;;;18.84;60.55;96877.00;5015032;28;20032;-77
2022/05/26 09:28:53;;;;;;;2.13;0.70;;;;;;;18.52;62.62;96880.25;5037438;28;20041;-77
2022/05/26 09:31:28;;;;;;;3.95;0.80;;;;;;;18.01;66.80;96893.75;5019566;28;20030;-76
2022/05/26 09:34:20;;;;;;;2.97;0.70;;;;;;;17.91;69.71;96886.06;5038003;28;20032;-76
2022/05/26 09:36:48;;;;;;;3.63;0.60;;;;;;;18.08;67.37;96887.47;5047476;28;20040;-76
2022/05/26 09:39:18;;;;;;;2.60;0.70;;;;;;;18.19;67.28;96882.63;5021307;28;20029;-77
2022/05/26 09:41:48;;;;;;;4.70;0.90;;;;;;;18.18;68.69;96886.31;5007837;28;20048;-77
2022/05/26 09:44:49;;;;;;;4.13;0.80;;;;;;;18.52;67.45;96874.91;5034133;28;20029;-77
2022/05/26 09:47:39;;;;;;;4.15;1.15;;;;;;;18.84;67.30;96881.50;5027944;28;20026;-77
2022/05/26 09:50:09;;;;;;;2.75;0.75;;;;;;;18.74;65.28;96881.03;5036906;28;20033;-76
2022/05/26 09:52:49;;;;;;;1.65;0.60;;;;;;;18.74;64.40;96886.38;5036506;28;20406;-75
2022/05/26 09:55:28;;;;;;;1.40;0.55;;;;;;;18.84;66.51;96894.84;5031769;28;21504;-77
2022/05/26 09:58:06;;;;;;;4.20;0.90;;;;;;;19.22;63.17;96889.13;5037183;28;20048;-77
2022/05/26 10:00:45;;;;;;;1.58;0.55;;;;;;;19.15;64.08;96893.59;5046032;28;20056;-75
2022/05/26 10:03:26;;;;;;;1.65;0.95;;;;;;;19.08;64.63;96894.38;5042833;28;20025;-75
2022/05/26 10:06:33;;;;;;;3.00;0.85;;;;;;;19.30;61.37;96894.28;5037000;28;20033;-76
2022/05/26 10:09:14;;;;;;;2.08;0.68;;;;;;;19.42;60.83;96889.22;5011397;28;20045;-77
2022/05/26 10:11:59;;;;;;;2.97;0.90;;;;;;;20.05;58.88;96891.69;5029573;28;20495;-76
2022/05/26 10:14:42;;;;;;;1.75;0.60;;;;;;;19.69;58.64;96884.84;5026432;28;20052;-77
2022/05/26 10:17:25;;;;;;;1.67;0.50;;;;;;;19.92;58.98;96892.47;5046425;28;20049;-76
2022/05/26 10:20:10;;;;;;;4.25;0.70;;;;;;;19.99;57.42;96891.47;5043878;28;20086;-77
2022/05/26 10:22:56;;;;;;;2.08;0.80;;;;;;;20.09;57.90;96891.09;5039719;28;20505;-77
2022/05/26 10:25:25;;;;;;;1.45;0.60;;;;;;;20.10;55.78;96891.91;5034488;28;20116;-77
2022/05/26 10:27:51;;;;;;;3.35;0.60;;;;;;;20.43;55.37;96895.44;5030881;28;20033;-78
2022/05/26 10:30:36;;;;;;;2.33;0.82;;;;;;;20.32;55.04;96895.22;5038738;28;20033;-77
2022/05/26 10:33:37;;;;;;;4.18;0.80;;;;;;;20.17;55.19;96890.88;5029547;28;20033;-77
2022/05/26 10:36:23;;;;;;;2.13;0.65;;;;;;;19.75;55.72;96886.69;5031341;28;20037;-77
2022/05/26 10:39:07;;;;;;;1.77;0.60;;;;;;;20.12;56.26;96890.69;5044456;28;20040;-76
2022/05/26 10:41:47;;;;;;;2.17;0.70;;;;;;;20.28;57.30;96894.78;5035790;28;20136;-76
2022/05/26 10:44:22;;;;;;;1.30;0.65;;;;;;;19.62;58.59;96894.63;5025762;28;20025;-77
2022/05/26 10:47:19;;;;;;;3.42;0.65;;;;;;;19.19;58.97;96900.19;5030127;28;20037;-76
2022/05/26 10:49:59;;;;;;;2.30;1.05;;;;;;;19.30;59.30;96896.94;5023385;28;20041;-76
2022/05/26 10:52:36;;;;;;;5.78;1.92;;;;;;;19.07;60.44;96902.56;5021719;28;20083;-77
2022/05/26 10:55:11;;;;;;;3.92;0.90;;;;;;;19.15;61.12;96898.91;5027568;28;20183;-76
2022/05/26 10:57:51;;;;;;;2.00;0.60;;;;;;;18.99;60.26;96892.91;5011046;28;20025;-76
2022/05/26 11:00:30;;;;;;;3.95;0.93;;;;;;;19.02;60.61;96900.50;5029774;28;20021;-77
2022/05/26 11:03:22;;;;;;;3.03;0.70;;;;;;;19.38;61.13;96899.44;5019004;28;20091;-77
2022/05/26 11:05:54;;;;;;;2.45;0.60;;;;;;;19.19;59.81;96892.19;5028345;28;20030;-77
2022/05/26 11:08:48;;;;;;;2.20;0.70;;;;;;;19.00;59.32;96902.53;5041812;28;20518;-77
2022/05/26 11:11:35;;;;;;;2.58;0.57;;;;;;;18.95;59.99;96899.66;5032528;28;20029;-77
2022/05/26 11:17:24;;;;;;;7.40;4.35;;;;;;;19.24;60.56;96887.06;5037593;28;20063;-77
2022/05/26 11:20:02;;;;;;;4.20;1.27;;;;;;;18.72;62.10;96899.91;5039292;28;20119;-77
2022/05/26 11:22:28;;;;;;;1.67;0.60;;;;;;;18.51;61.56;96902.56;5029356;28;20025;-77
2022/05/26 11:24:57;;;;;;;2.28;0.60;;;;;;;18.86;63.80;96905.31;5023859;28;20775;-78
2022/05/26 11:27:31;;;;;;;2.35;0.70;;;;;;;18.54;61.52;96902.16;5028027;28;21030;-78
2022/05/26 11:30:02;;;;;;;3.03;1.00;;;;;;;18.72;61.56;96893.75;5041060;28;20041;-78
2022/05/26 11:38:29;;;;;;;2.42;0.70;;;;;;;18.40;62.27;96906.56;5027436;28;20147;-76
2022/05/26 11:41:02;;;;;;;3.40;1.10;;;;;;;18.73;64.10;96903.38;5033885;28;20037;-77
2022/05/26 11:43:40;;;;;;;1.85;0.60;;;;;;;19.00;62.96;96905.19;5036371;28;20091;-77
2022/05/26 11:46:09;;;;;;;1.17;0.50;;;;;;;18.84;60.41;96900.16;5019466;28;20160;-77
2022/05/26 11:48:44;;;;;;;1.80;0.73;;;;;;;18.84;61.67;96902.81;5041488;28;20066;-76
2022/05/26 11:51:28;;;;;;;3.63;0.60;;;;;;;18.77;61.07;96896.63;5030756;28;20495;-77
2022/05/26 11:53:54;;;;;;;2.15;0.93;;;;;;;18.97;62.60;96902.09;5034996;28;20179;-77
2022/05/26 11:56:30;;;;;;;2.03;0.70;;;;;;;19.04;59.61;96897.63;5029725;28;20021;-78
2022/05/26 11:59:19;;;;;;;0.95;0.47;;;;;;;18.83;59.59;96890.53;5025286;28;20026;-77
2022/05/26 12:01:46;;;;;;;3.25;0.60;;;;;;;19.04;61.12;96894.97;5008001;28;20041;-78
2022/05/26 12:04:40;;;;;;;1.70;0.60;;;;;;;19.23;61.51;96891.59;5018501;28;20503;-77
2022/05/26 12:07:36;;;;;;;2.50;0.80;;;;;;;19.45;60.77;96889.66;5031952;28;20061;-77
2022/05/26 12:10:17;;;;;;;3.05;0.50;;;;;;;19.52;59.49;96890.50;5022240;28;20099;-77
2022/05/26 12:12:43;;;;;;;3.53;1.45;;;;;;;19.67;58.13;96894.88;5036111;28;20059;-78
2022/05/26 12:15:27;;;;;;;5.93;2.20;;;;;;;19.90;58.72;96900.69;5031481;28;20037;-77
2022/05/26 12:17:56;;;;;;;2.55;0.55;;;;;;;19.58;58.69;96891.53;5033566;28;20033;-77
2022/05/26 12:20:21;;;;;;;2.20;0.88;;;;;;;19.95;56.06;96884.06;5017296;28;20441;-78
2022/05/26 12:22:47;;;;;;;3.33;0.98;;;;;;;20.05;56.56;96886.34;5014910;28;20045;-77
2022/05/26 12:25:23;;;;;;;3.85;0.80;;;;;;;20.12;57.02;96885.34;5036084;28;20044;-77
2022/05/26 12:27:51;;;;;;;2.45;0.63;;;;;;;20.14;57.19;96882.47;5005804;28;20026;-77
2022/05/26 12:30:41;;;;;;;2.90;0.60;;;;;;;20.10;55.35;96878.56;5035483;28;20017;-78
2022/05/26 12:33:19;;;;;;;14.13;9.88;;;;;;;20.22;57.42;96879.56;5032604;28;20449;-78